Time;durP1;ratioP1;P1;durP2;ratioP2;P2;SDS_P1;SDS_P2;PMS_P1;PMS_P2;Temp;Humidity;BMP_temperature;BMP_pressure;BME280_temperature;BME280_humidity;BME280_pressure;Samples;Min_cycle;Max_cycle;Signal;HPM_P1;HPM_P2
2022/12/16 00:01:54;;;;;;;55.50;20.38;;;-1.10;99.90;;;;;;5010498;28;20034;-64
2022/12/16 00:04:20;;;;;;;47.30;17.92;;;-1.10;99.90;;;;;;5021323;28;20056;-65
2022/12/16 00:06:46;;;;;;;54.63;18.33;;;-1.20;99.90;;;;;;5013317;28;20100;-65
2022/12/16 00:09:11;;;;;;;56.88;19.63;;;-1.30;99.90;;;;;;5011797;28;20034;-65
2022/12/16 00:11:37;;;;;;;51.35;18.38;;;-1.40;99.90;;;;;;5011345;28;20080;-65
2022/12/16 00:14:03;;;;;;;57.10;19.42;;;-1.30;99.90;;;;;;5010074;28;20038;-63
2022/12/16 00:16:29;;;;;;;55.95;19.42;;;-1.30;99.90;;;;;;5007941;28;20084;-66
2022/12/16 00:18:54;;;;;;;49.88;19.42;;;-1.40;99.90;;;;;;5009066;28;20434;-63
2022/12/16 00:21:20;;;;;;;56.92;18.55;;;-1.40;99.90;;;;;;5011949;28;20032;-65
2022/12/16 00:23:46;;;;;;;56.95;19.27;;;-1.40;99.90;;;;;;5006005;28;20054;-65
2022/12/16 00:26:13;;;;;;;56.53;19.45;;;-1.40;99.90;;;;;;5010666;28;20073;-65
2022/12/16 00:28:39;;;;;;;56.38;19.02;;;-1.40;99.90;;;;;;5004181;28;20096;-63
2022/12/16 00:31:05;;;;;;;50.78;18.40;;;-1.40;99.90;;;;;;5009736;28;20034;-66
2022/12/16 00:33:31;;;;;;;53.33;19.17;;;-1.40;99.90;;;;;;5003343;28;20484;-65
2022/12/16 00:35:57;;;;;;;54.45;19.38;;;-1.40;99.90;;;;;;5000112;28;20046;-64
2022/12/16 00:38:25;;;;;;;56.70;19.55;;;-1.30;99.90;;;;;;4992953;28;20037;-65
2022/12/16 00:40:51;;;;;;;48.53;17.92;;;-1.30;99.90;;;;;;5009144;28;20026;-63
2022/12/16 00:43:16;;;;;;;52.40;19.38;;;-1.30;99.90;;;;;;4994958;28;20096;-65
2022/12/16 00:45:42;;;;;;;53.78;19.00;;;-1.30;99.90;;;;;;5009960;28;20056;-64
2022/12/16 00:48:08;;;;;;;49.33;18.48;;;-1.30;99.90;;;;;;5002791;28;20092;-65
2022/12/16 00:50:34;;;;;;;51.22;18.58;;;-1.40;99.90;;;;;;5002729;28;20066;-64
2022/12/16 00:53:00;;;;;;;60.85;19.42;;;-1.40;99.90;;;;;;4994407;28;20390;-63
2022/12/16 00:55:26;;;;;;;48.90;18.13;;;-1.40;99.90;;;;;;5009115;28;20109;-65
2022/12/16 00:57:51;;;;;;;51.75;18.05;;;-1.50;99.90;;;;;;5010965;28;20022;-65
2022/12/16 01:00:18;;;;;;;65.63;19.70;;;-1.40;99.90;;;;;;5008555;28;20434;-65
2022/12/16 01:02:46;;;;;;;53.90;19.25;;;-1.40;99.90;;;;;;5003226;28;20064;-66
2022/12/16 01:05:14;;;;;;;55.42;18.35;;;-1.40;99.90;;;;;;5012707;28;20038;-65
2022/12/16 01:07:40;;;;;;;55.72;19.27;;;-1.40;99.90;;;;;;5007892;28;20036;-64
2022/12/16 01:10:08;;;;;;;53.03;18.73;;;-1.30;99.90;;;;;;4995417;28;20022;-65
2022/12/16 01:12:35;;;;;;;52.25;18.15;;;-1.40;99.90;;;;;;5001165;28;20084;-69
2022/12/16 01:15:01;;;;;;;51.97;19.10;;;-1.30;99.90;;;;;;5007700;28;20364;-65
2022/12/16 01:17:26;;;;;;;54.50;19.20;;;-1.30;99.90;;;;;;5009359;28;20030;-66
2022/12/16 01:19:53;;;;;;;54.20;18.35;;;-1.40;99.90;;;;;;5008397;28;20096;-64
2022/12/16 01:22:20;;;;;;;58.22;20.42;;;-1.30;99.90;;;;;;5008171;28;20049;-67
2022/12/16 01:24:46;;;;;;;50.50;18.08;;;-1.40;99.90;;;;;;5007930;28;20052;-66
2022/12/16 01:27:12;;;;;;;55.35;18.90;;;-1.40;99.90;;;;;;5000262;28;20454;-64
2022/12/16 01:29:38;;;;;;;57.70;18.58;;;-1.40;99.90;;;;;;5005938;28;20034;-66
2022/12/16 01:32:05;;;;;;;57.53;20.30;;;-1.30;99.90;;;;;;5014537;28;20034;-65
2022/12/16 01:34:31;;;;;;;58.63;20.05;;;-1.30;99.90;;;;;;5008188;28;20041;-66
2022/12/16 01:36:57;;;;;;;58.30;20.33;;;-1.20;99.90;;;;;;5005581;28;20050;-63
2022/12/16 01:39:24;;;;;;;52.08;19.70;;;-1.20;99.90;;;;;;4997167;28;20562;-68
2022/12/16 01:41:49;;;;;;;56.15;21.40;;;-1.30;99.90;;;;;;4996259;28;20080;-64
2022/12/16 01:44:21;;;;;;;56.75;20.75;;;-1.20;99.90;;;;;;5007057;28;20037;-65
2022/12/16 01:47:00;;;;;;;56.53;21.05;;;-1.20;99.90;;;;;;5001374;28;20030;-64
2022/12/16 01:49:30;;;;;;;56.58;20.02;;;-1.20;99.90;;;;;;5002724;28;20034;-65
2022/12/16 01:52:01;;;;;;;54.60;20.00;;;-1.30;99.90;;;;;;5001908;28;20127;-66
2022/12/16 01:54:35;;;;;;;59.75;20.65;;;-1.30;99.90;;;;;;5007093;28;20094;-64
2022/12/16 01:57:05;;;;;;;57.97;20.88;;;-1.30;99.90;;;;;;5009216;28;20518;-65
2022/12/16 01:59:33;;;;;;;62.53;21.20;;;-1.30;99.90;;;;;;5007841;28;20022;-66
2022/12/16 02:01:59;;;;;;;60.83;21.73;;;-1.30;99.90;;;;;;5011952;28;20088;-64
2022/12/16 02:04:25;;;;;;;57.33;20.83;;;-1.30;99.90;;;;;;5010329;28;20491;-66
2022/12/16 02:06:50;;;;;;;57.03;20.30;;;-1.30;99.90;;;;;;5006603;28;20037;-65
2022/12/16 02:09:17;;;;;;;54.90;20.52;;;-1.40;99.90;;;;;;5000359;28;20052;-65
2022/12/16 02:11:59;;;;;;;53.58;19.60;;;-1.40;99.90;;;;;;5007954;28;20107;-64
2022/12/16 02:15:03;;;;;;;62.13;21.70;;;-1.30;99.90;;;;;;4993158;28;20069;-64
2022/12/16 02:17:40;;;;;;;61.75;21.25;;;-1.30;99.90;;;;;;5003833;28;20425;-66
2022/12/16 02:20:28;;;;;;;57.95;20.80;;;-1.30;99.90;;;;;;5008525;28;20034;-63
2022/12/16 02:23:03;;;;;;;57.78;20.35;;;-1.30;99.90;;;;;;5004247;28;20053;-65
2022/12/16 02:25:40;;;;;;;54.95;20.38;;;-1.30;99.90;;;;;;5008174;28;20073;-65
2022/12/16 02:28:27;;;;;;;65.43;22.83;;;-1.30;99.90;;;;;;4996636;28;20406;-64
2022/12/16 02:31:00;;;;;;;55.97;20.30;;;-1.30;99.90;;;;;;5006925;28;20065;-65
2022/12/16 02:33:54;;;;;;;59.80;21.67;;;-1.30;99.90;;;;;;5014496;28;20038;-66
2022/12/16 02:36:34;;;;;;;55.33;20.75;;;-1.30;99.90;;;;;;4994272;28;20035;-67
2022/12/16 02:39:12;;;;;;;55.28;20.40;;;-1.30;99.90;;;;;;4994647;28;20498;-65
2022/12/16 02:42:06;;;;;;;60.83;20.75;;;-1.30;99.90;;;;;;5023737;28;20713;-68
2022/12/16 02:44:42;;;;;;;55.75;20.15;;;-1.20;99.90;;;;;;5006682;28;20649;-65
2022/12/16 02:47:07;;;;;;;54.35;19.80;;;-1.20;99.90;;;;;;5008551;28;20085;-66
2022/12/16 02:49:33;;;;;;;57.70;21.17;;;-1.20;99.90;;;;;;5009226;28;20534;-66
2022/12/16 02:52:00;;;;;;;62.65;22.08;;;-1.20;99.90;;;;;;5004090;28;20379;-66
2022/12/16 02:54:27;;;;;;;55.15;20.60;;;-1.20;99.90;;;;;;5002546;28;20038;-63
2022/12/16 02:57:17;;;;;;;56.28;21.25;;;-1.20;99.90;;;;;;5007208;28;20030;-64
2022/12/16 02:59:46;;;;;;;58.95;20.77;;;-1.20;99.90;;;;;;4987936;28;20651;-65
2022/12/16 03:02:25;;;;;;;55.45;21.33;;;-1.20;99.90;;;;;;4997488;28;20034;-65
2022/12/16 03:04:57;;;;;;;55.40;21.13;;;-1.20;99.90;;;;;;5005957;28;20390;-64
2022/12/16 03:07:26;;;;;;;56.47;20.90;;;-1.20;99.90;;;;;;5004894;28;20423;-64
2022/12/16 03:09:53;;;;;;;59.13;21.13;;;-1.20;99.90;;;;;;5006401;28;20022;-64
2022/12/16 03:12:21;;;;;;;59.25;21.25;;;-1.20;99.90;;;;;;5003333;28;20037;-66
2022/12/16 03:14:50;;;;;;;59.42;20.52;;;-1.30;99.90;;;;;;4989386;28;20117;-65
2022/12/16 03:17:18;;;;;;;63.72;23.17;;;-1.20;99.90;;;;;;5000225;28;20034;-65
2022/12/16 03:19:53;;;;;;;56.17;21.27;;;-1.20;99.90;;;;;;4993137;28;20045;-64
2022/12/16 03:22:22;;;;;;;65.65;23.08;;;-1.20;99.90;;;;;;4996551;28;20062;-64
2022/12/16 03:24:48;;;;;;;55.70;21.35;;;-1.20;99.90;;;;;;4993845;28;20046;-64
2022/12/16 03:27:40;;;;;;;64.30;22.58;;;-1.20;99.90;;;;;;5011518;28;20395;-64
2022/12/16 03:30:12;;;;;;;65.32;21.40;;;-1.20;99.90;;;;;;5008925;28;20026;-64
2022/12/16 03:32:46;;;;;;;60.97;22.27;;;-1.20;99.90;;;;;;4995139;28;20058;-67
2022/12/16 03:35:20;;;;;;;64.72;22.35;;;-1.20;99.90;;;;;;5011662;28;20025;-63
2022/12/16 03:37:49;;;;;;;65.32;22.38;;;-1.20;99.90;;;;;;5005776;28;20031;-64
2022/12/16 03:40:15;;;;;;;66.63;22.45;;;-1.20;99.90;;;;;;4994727;28;20033;-64
2022/12/16 03:42:42;;;;;;;62.40;22.88;;;-1.20;99.90;;;;;;4995366;28;20385;-67
2022/12/16 03:45:13;;;;;;;74.70;24.42;;;-1.30;99.90;;;;;;5007804;28;20029;-63
2022/12/16 03:47:39;;;;;;;69.80;24.98;;;-1.20;99.90;;;;;;5030130;28;20058;-69
2022/12/16 03:50:05;;;;;;;65.95;23.75;;;-1.20;99.90;;;;;;5011810;28;20088;-64
2022/12/16 03:52:31;;;;;;;69.18;24.75;;;-1.20;99.90;;;;;;5014929;28;20045;-64
2022/12/16 03:54:57;;;;;;;71.75;24.67;;;-1.20;99.90;;;;;;5011691;28;20116;-63
2022/12/16 03:57:23;;;;;;;73.35;25.60;;;-1.20;99.90;;;;;;5012439;28;20129;-63
2022/12/16 03:59:48;;;;;;;71.95;24.45;;;-1.20;99.90;;;;;;5011732;28;20492;-64
2022/12/16 04:02:14;;;;;;;68.60;25.00;;;-1.30;99.90;;;;;;5003088;28;20030;-64
2022/12/16 04:04:40;;;;;;;72.05;24.67;;;-1.30;99.90;;;;;;5009917;28;20471;-65
2022/12/16 04:07:23;;;;;;;66.95;23.60;;;-1.30;99.90;;;;;;5009046;28;20120;-64
2022/12/16 04:09:49;;;;;;;66.45;24.05;;;-1.30;99.90;;;;;;5013696;28;20042;-65
2022/12/16 04:26:02;;;;;;;64.57;24.33;;;-1.30;99.90;;;;;;5029722;28;20028;-65
2022/12/16 04:28:28;;;;;;;76.80;25.83;;;-1.30;99.90;;;;;;5011749;28;20045;-64
2022/12/16 04:30:54;;;;;;;65.65;23.63;;;-1.30;99.90;;;;;;5013463;28;20038;-63
